createdAt,value
2017-06-27T00:00:10.831Z,18.26
2017-06-27T00:00:36.930Z,18.19
2017-06-27T00:01:03.035Z,18.18
2017-06-27T00:01:29.176Z,18.2
2017-06-27T00:01:55.274Z,18.16
2017-06-27T00:02:21.381Z,18.22
2017-06-27T00:02:47.474Z,18.25
2017-06-27T00:03:13.563Z,18.23
2017-06-27T00:03:39.674Z,18.2
2017-06-27T00:04:05.771Z,18.07
2017-06-27T00:04:31.886Z,18.15
2017-06-27T00:04:58.018Z,18.13
2017-06-27T00:05:24.235Z,18.16
2017-06-27T00:05:50.341Z,18.16
2017-06-27T00:06:16.435Z,18.18
2017-06-27T00:06:42.526Z,18.19
2017-06-27T00:07:08.637Z,18.15
2017-06-27T00:07:34.730Z,18.19
2017-06-27T00:08:00.820Z,18.11
2017-06-27T00:08:26.951Z,18.15
2017-06-27T00:08:53.053Z,18.15
2017-06-27T00:09:19.168Z,18.19
2017-06-27T00:09:45.272Z,18.11
2017-06-27T00:10:11.378Z,18.1
2017-06-27T00:10:37.473Z,17.97
2017-06-27T00:11:03.567Z,17.97
2017-06-27T00:11:29.659Z,17.98
2017-06-27T00:11:55.789Z,18
2017-06-27T00:12:21.891Z,17.92
2017-06-27T00:12:47.983Z,18
2017-06-27T00:13:14.114Z,18.11
2017-06-27T00:13:40.248Z,18.07
2017-06-27T00:14:06.335Z,18.1
2017-06-27T00:14:32.461Z,18.16
2017-06-27T00:14:58.569Z,18.13
2017-06-27T00:15:24.660Z,18.2
2017-06-27T00:15:50.806Z,18.1
2017-06-27T00:16:16.929Z,18.1
2017-06-27T00:16:43.030Z,18.11
2017-06-27T00:17:09.136Z,18.1
2017-06-27T00:17:35.223Z,18.15
2017-06-27T00:18:01.347Z,18.01
2017-06-27T00:18:27.483Z,18.01
2017-06-27T00:18:53.624Z,17.94
2017-06-27T00:19:19.745Z,18
2017-06-27T00:19:45.907Z,18.03
2017-06-27T00:20:12.087Z,17.92
2017-06-27T00:20:38.178Z,17.97
2017-06-27T00:21:04.287Z,17.92
2017-06-27T00:21:30.389Z,17.98
2017-06-27T00:21:56.545Z,18.03
2017-06-27T00:22:22.663Z,18.05
2017-06-27T00:22:48.809Z,18.05
2017-06-27T00:23:14.918Z,17.98
2017-06-27T00:23:41.011Z,18.03
2017-06-27T00:24:07.102Z,17.9
2017-06-27T00:24:33.211Z,18.03
2017-06-27T00:24:59.305Z,18.01
2017-06-27T00:25:25.396Z,18
2017-06-27T00:25:51.503Z,18.04
2017-06-27T00:26:17.630Z,18.05
2017-06-27T00:26:43.746Z,18
2017-06-27T00:27:09.850Z,18.07
2017-06-27T00:27:35.940Z,17.92
2017-06-27T00:28:02.077Z,17.94
2017-06-27T00:28:28.186Z,17.94
2017-06-27T00:28:54.544Z,17.82
2017-06-27T00:29:20.655Z,17.86
2017-06-27T00:29:46.750Z,18
2017-06-27T00:30:12.838Z,18.04
2017-06-27T00:30:39.296Z,17.92
2017-06-27T00:31:05.345Z,17.97
2017-06-27T00:31:31.432Z,18.01
2017-06-27T00:31:57.531Z,17.97
2017-06-27T00:32:23.633Z,17.95
2017-06-27T00:32:49.728Z,17.97
2017-06-27T00:33:15.823Z,17.95
2017-06-27T00:33:41.956Z,18.04
2017-06-27T00:34:08.050Z,18.03
2017-06-27T00:34:34.141Z,18.03
2017-06-27T00:35:00.276Z,18
2017-06-27T00:35:26.394Z,17.92
2017-06-27T00:35:52.484Z,18.04
2017-06-27T00:36:18.589Z,18.04
2017-06-27T00:36:44.717Z,18.01
2017-06-27T00:37:10.808Z,18.05
2017-06-27T00:37:36.910Z,18.08
2017-06-27T00:38:03.016Z,18.08
2017-06-27T00:38:29.108Z,18.08
2017-06-27T00:38:55.204Z,18.04
2017-06-27T00:39:21.294Z,18.03
2017-06-27T00:39:47.401Z,17.97
2017-06-27T00:40:13.502Z,17.95
2017-06-27T00:40:39.593Z,18.03
2017-06-27T00:41:05.696Z,17.94
2017-06-27T00:41:31.830Z,18.03
2017-06-27T00:41:57.916Z,17.86
2017-06-27T00:42:24.063Z,17.94
2017-06-27T00:42:50.171Z,17.89
2017-06-27T00:43:16.342Z,17.89
2017-06-27T00:43:42.405Z,17.9
2017-06-27T00:44:08.503Z,17.94
2017-06-27T00:44:34.607Z,17.98
2017-06-27T00:45:00.739Z,17.98
2017-06-27T00:45:26.827Z,17.9
2017-06-27T00:45:52.927Z,17.97
2017-06-27T00:46:19.032Z,17.79
2017-06-27T00:46:45.123Z,17.83
2017-06-27T00:47:11.245Z,17.86
2017-06-27T00:47:37.377Z,17.82
2017-06-27T00:48:03.498Z,17.85
2017-06-27T00:48:29.587Z,17.82
2017-06-27T00:48:55.696Z,17.74
2017-06-27T00:49:21.815Z,17.78
2017-06-27T00:49:47.946Z,17.82
2017-06-27T00:50:14.034Z,17.87
2017-06-27T00:50:40.130Z,17.83
2017-06-27T00:51:06.237Z,17.78
2017-06-27T00:51:32.328Z,17.78
2017-06-27T00:51:58.420Z,17.83
2017-06-27T00:52:24.580Z,17.76
2017-06-27T00:52:50.703Z,17.79
2017-06-27T00:53:16.795Z,17.72
2017-06-27T00:53:42.901Z,17.82
2017-06-27T00:54:09.001Z,17.74
2017-06-27T00:54:35.114Z,17.83
2017-06-27T00:55:01.216Z,17.76
2017-06-27T00:55:27.305Z,17.72
2017-06-27T00:55:53.416Z,17.7
2017-06-27T00:56:19.511Z,17.57
2017-06-27T00:56:45.599Z,17.59
2017-06-27T00:57:11.704Z,17.64
2017-06-27T00:57:37.806Z,17.71
2017-06-27T00:58:03.923Z,17.72
2017-06-27T00:58:30.079Z,17.71
2017-06-27T00:58:56.185Z,17.67
2017-06-27T00:59:22.295Z,17.71
2017-06-27T00:59:48.419Z,17.8
2017-06-27T01:00:14.527Z,17.76
2017-06-27T01:00:40.629Z,17.79
2017-06-27T01:01:06.746Z,17.74
2017-06-27T01:01:32.836Z,17.78
2017-06-27T01:01:58.939Z,17.79
2017-06-27T01:02:25.064Z,17.82
2017-06-27T01:02:51.166Z,17.78
2017-06-27T01:03:17.265Z,17.74
2017-06-27T01:03:43.424Z,17.78
2017-06-27T01:04:09.513Z,17.78
2017-06-27T01:04:35.632Z,17.76
2017-06-27T01:05:01.736Z,17.63
2017-06-27T01:05:27.829Z,17.63
2017-06-27T01:05:54.020Z,17.59
2017-06-27T01:06:20.151Z,17.59
2017-06-27T01:06:46.250Z,17.59
2017-06-27T01:07:12.385Z,17.67
2017-06-27T01:07:38.473Z,17.54
2017-06-27T01:08:04.593Z,17.6
2017-06-27T01:08:30.698Z,17.6
2017-06-27T01:08:56.793Z,17.57
2017-06-27T01:09:22.907Z,17.56
2017-06-27T01:09:49.062Z,17.67
2017-06-27T01:10:15.140Z,17.65
2017-06-27T01:10:41.254Z,17.63
2017-06-27T01:11:07.385Z,17.65
2017-06-27T01:11:33.484Z,17.7
2017-06-27T01:11:59.586Z,17.67
2017-06-27T01:12:25.703Z,17.67
2017-06-27T01:12:51.817Z,17.67
2017-06-27T01:13:17.926Z,17.64
2017-06-27T01:13:44.023Z,17.6
2017-06-27T01:14:10.114Z,17.48
2017-06-27T01:14:36.221Z,17.54
2017-06-27T01:15:02.346Z,17.52
2017-06-27T01:15:28.485Z,17.45
2017-06-27T01:15:54.585Z,17.36
2017-06-27T01:16:20.690Z,17.48
2017-06-27T01:16:46.776Z,17.34
2017-06-27T01:17:12.902Z,17.34
2017-06-27T01:17:39.037Z,17.29
2017-06-27T01:18:05.126Z,17.36
2017-06-27T01:18:31.222Z,17.34
2017-06-27T01:18:57.329Z,17.33
2017-06-27T01:19:23.420Z,17.26
2017-06-27T01:19:49.533Z,17.24
2017-06-27T01:20:15.640Z,17.24
2017-06-27T01:20:41.738Z,17.23
2017-06-27T01:21:07.878Z,17.31
2017-06-27T01:21:33.985Z,17.26
2017-06-27T01:22:00.112Z,17.16
2017-06-27T01:22:26.274Z,17.16
2017-06-27T01:22:52.376Z,17.08
2017-06-27T01:23:18.541Z,17.05
2017-06-27T01:23:44.677Z,17.09
2017-06-27T01:24:10.773Z,17.11
2017-06-27T01:24:36.863Z,17.12
2017-06-27T01:25:02.992Z,17.02
2017-06-27T01:25:29.089Z,16.99
2017-06-27T01:25:55.179Z,17.08
2017-06-27T01:26:21.282Z,17.06
2017-06-27T01:26:47.386Z,16.81
2017-06-27T01:27:13.473Z,16.84
2017-06-27T01:27:39.598Z,16.94
2017-06-27T01:28:05.733Z,16.89
2017-06-27T01:28:31.850Z,16.99
2017-06-27T01:28:57.979Z,16.94
2017-06-27T01:29:24.070Z,16.99
2017-06-27T01:29:50.223Z,16.97
2017-06-27T01:30:16.327Z,17.12
2017-06-27T01:30:42.414Z,17.05
2017-06-27T01:31:08.514Z,17.11
2017-06-27T01:31:34.619Z,17.11
2017-06-27T01:32:00.707Z,17.08
2017-06-27T01:32:26.802Z,17.08
2017-06-27T01:32:52.909Z,16.94
2017-06-27T01:33:19.001Z,17.08
2017-06-27T01:33:45.088Z,17.01
2017-06-27T01:34:11.189Z,16.96
2017-06-27T01:34:37.289Z,16.9
2017-06-27T01:35:03.394Z,16.83
2017-06-27T01:35:29.484Z,16.79
2017-06-27T01:35:55.681Z,16.81
2017-06-27T01:36:21.813Z,16.75
2017-06-27T01:36:47.907Z,16.74
2017-06-27T01:37:14.046Z,16.81
2017-06-27T01:37:40.154Z,16.81
2017-06-27T01:38:06.247Z,16.78
2017-06-27T01:38:32.336Z,16.9
2017-06-27T01:38:58.441Z,16.87
2017-06-27T01:39:24.539Z,16.87
2017-06-27T01:39:50.637Z,16.78
2017-06-27T01:40:16.729Z,16.9
2017-06-27T01:40:42.817Z,16.91
2017-06-27T01:41:08.928Z,16.94
2017-06-27T01:41:35.079Z,16.91
2017-06-27T01:42:01.168Z,17.01
2017-06-27T01:42:27.272Z,16.97
2017-06-27T01:42:53.371Z,17.05
2017-06-27T01:43:19.460Z,16.97
2017-06-27T01:43:45.562Z,17.06
2017-06-27T01:44:11.694Z,17.02
2017-06-27T01:44:37.834Z,16.94
2017-06-27T01:45:03.934Z,17.06
2017-06-27T01:45:30.053Z,17.06
2017-06-27T01:45:56.157Z,17.15
2017-06-27T01:46:22.255Z,17.08
2017-06-27T01:46:48.346Z,17.14
2017-06-27T01:47:14.472Z,17.02
2017-06-27T01:47:40.578Z,17.04
2017-06-27T01:48:06.688Z,17.09
2017-06-27T01:48:32.788Z,17.14
2017-06-27T01:48:58.893Z,17.19
2017-06-27T01:49:24.981Z,17.16
2017-06-27T01:49:51.096Z,17.16
2017-06-27T01:50:17.212Z,17.16
2017-06-27T01:50:43.304Z,17.19
2017-06-27T01:51:09.411Z,17.2
2017-06-27T01:51:35.521Z,17.23
2017-06-27T01:52:01.645Z,17.16
2017-06-27T01:52:27.805Z,17.16
2017-06-27T01:52:53.894Z,17.2
2017-06-27T01:53:19.993Z,17.19
2017-06-27T01:53:46.122Z,17.11
2017-06-27T01:54:12.242Z,17.16
2017-06-27T01:54:38.332Z,17.11
2017-06-27T01:55:04.467Z,17.12
2017-06-27T01:55:30.561Z,17.11
2017-06-27T01:55:56.651Z,17.11
2017-06-27T01:56:22.781Z,17.14
2017-06-27T01:56:48.897Z,17.11
2017-06-27T01:57:15.028Z,17.19
2017-06-27T01:57:41.145Z,17.2
2017-06-27T01:58:07.261Z,17.2
2017-06-27T01:58:33.369Z,17.29
2017-06-27T01:58:59.466Z,17.24
2017-06-27T01:59:25.558Z,17.24
2017-06-27T01:59:51.687Z,17.24
2017-06-27T02:00:17.786Z,17.23
2017-06-27T02:00:43.876Z,17.23
2017-06-27T02:01:09.979Z,17.05
2017-06-27T02:01:36.085Z,17.02
2017-06-27T02:02:02.198Z,16.87
2017-06-27T02:02:28.321Z,16.97
2017-06-27T02:02:54.426Z,16.96
2017-06-27T02:03:20.570Z,16.84
2017-06-27T02:03:46.665Z,16.74
2017-06-27T02:04:12.773Z,16.81
2017-06-27T02:04:38.894Z,16.86
2017-06-27T02:05:05.009Z,16.71
2017-06-27T02:05:31.115Z,16.68
2017-06-27T02:05:57.211Z,16.75
2017-06-27T02:06:23.350Z,16.66
2017-06-27T02:06:49.455Z,16.72
2017-06-27T02:07:15.554Z,16.71
2017-06-27T02:07:41.655Z,16.78
2017-06-27T02:08:07.747Z,16.78
2017-06-27T02:08:33.836Z,16.76
2017-06-27T02:08:59.942Z,16.78
2017-06-27T02:09:26.039Z,16.78
2017-06-27T02:09:52.130Z,16.84
2017-06-27T02:10:18.234Z,16.75
2017-06-27T02:10:44.349Z,16.72
2017-06-27T02:11:10.472Z,16.74
2017-06-27T02:11:36.575Z,16.71
2017-06-27T02:12:02.678Z,16.74
2017-06-27T02:12:28.810Z,16.76
2017-06-27T02:12:54.911Z,16.66
2017-06-27T02:13:21.056Z,16.71
2017-06-27T02:13:47.182Z,16.66
2017-06-27T02:14:13.281Z,16.65
2017-06-27T02:14:39.369Z,16.61
2017-06-27T02:15:05.472Z,16.61
2017-06-27T02:15:31.602Z,16.64
2017-06-27T02:15:57.689Z,16.61
2017-06-27T02:16:23.790Z,16.6
2017-06-27T02:16:49.923Z,16.58
2017-06-27T02:17:16.014Z,16.69
2017-06-27T02:17:42.132Z,16.6
2017-06-27T02:18:08.236Z,16.66
2017-06-27T02:18:34.328Z,16.58
2017-06-27T02:19:00.464Z,16.66
2017-06-27T02:19:26.552Z,16.74
2017-06-27T02:19:52.672Z,16.69
2017-06-27T02:20:18.807Z,16.78
2017-06-27T02:20:44.919Z,16.72
2017-06-27T02:21:11.015Z,16.71
2017-06-27T02:21:37.121Z,16.76
2017-06-27T02:22:03.212Z,16.86
2017-06-27T02:22:29.324Z,16.74
2017-06-27T02:22:55.433Z,16.72
2017-06-27T02:23:21.554Z,16.79
2017-06-27T02:23:47.644Z,16.66
2017-06-27T02:24:13.778Z,16.66
2017-06-27T02:24:39.873Z,16.71
2017-06-27T02:25:05.979Z,16.64
2017-06-27T02:25:32.070Z,16.75
2017-06-27T02:25:58.185Z,16.74
2017-06-27T02:26:24.292Z,16.74
2017-06-27T02:26:50.389Z,16.69
2017-06-27T02:27:16.481Z,16.69
2017-06-27T02:27:42.611Z,16.74
2017-06-27T02:28:08.712Z,16.74
2017-06-27T02:28:34.824Z,16.71
2017-06-27T02:29:00.927Z,16.72
2017-06-27T02:29:27.033Z,16.74
2017-06-27T02:29:53.151Z,16.74
2017-06-27T02:30:19.270Z,16.75
2017-06-27T02:30:45.383Z,16.78
2017-06-27T02:31:11.489Z,16.76
2017-06-27T02:31:37.613Z,16.83
2017-06-27T02:32:03.727Z,16.75
2017-06-27T02:32:29.857Z,16.76
2017-06-27T02:32:55.988Z,16.84
2017-06-27T02:33:22.099Z,16.74
2017-06-27T02:33:48.247Z,16.72
2017-06-27T02:34:14.352Z,16.74
2017-06-27T02:34:40.440Z,16.75
2017-06-27T02:35:06.536Z,16.58
2017-06-27T02:35:32.632Z,16.57
2017-06-27T02:35:58.736Z,16.71
2017-06-27T02:36:24.840Z,16.71
2017-06-27T02:36:50.927Z,16.64
2017-06-27T02:37:17.026Z,16.71
2017-06-27T02:37:43.161Z,16.66
2017-06-27T02:38:09.250Z,16.61
2017-06-27T02:38:35.347Z,16.56
2017-06-27T02:39:01.452Z,16.5
2017-06-27T02:39:27.544Z,16.53
2017-06-27T02:39:53.636Z,16.54
2017-06-27T02:40:19.746Z,16.57
2017-06-27T02:40:45.839Z,16.54
2017-06-27T02:41:11.967Z,16.66
2017-06-27T02:41:38.105Z,16.69
2017-06-27T02:42:04.273Z,16.69
2017-06-27T02:42:30.430Z,16.61
2017-06-27T02:42:56.522Z,16.5
2017-06-27T02:43:22.612Z,16.5
2017-06-27T02:43:48.721Z,16.57
2017-06-27T02:44:14.818Z,16.49
2017-06-27T02:44:40.935Z,16.6
2017-06-27T02:45:07.039Z,16.53
2017-06-27T02:45:33.138Z,16.51
2017-06-27T02:45:59.228Z,16.6
2017-06-27T02:46:25.329Z,16.51
2017-06-27T02:46:51.433Z,16.46
2017-06-27T02:47:17.544Z,16.58
2017-06-27T02:47:43.695Z,16.65
2017-06-27T02:48:09.799Z,16.65
2017-06-27T02:48:35.912Z,16.56
2017-06-27T02:49:02.006Z,16.58
2017-06-27T02:49:28.114Z,16.58
2017-06-27T02:49:54.208Z,16.51
2017-06-27T02:50:20.296Z,16.51
2017-06-27T02:50:46.402Z,16.53
2017-06-27T02:51:12.500Z,16.49
2017-06-27T02:51:38.587Z,16.47
2017-06-27T02:52:04.722Z,16.5
2017-06-27T02:52:30.814Z,16.38
2017-06-27T02:52:56.916Z,16.29
2017-06-27T02:53:23.009Z,16.31
2017-06-27T02:53:49.098Z,16.29
2017-06-27T02:54:15.234Z,16.26
2017-06-27T02:54:41.331Z,16.28
2017-06-27T02:55:07.466Z,16.28
2017-06-27T02:55:33.648Z,16.24
2017-06-27T02:55:59.775Z,16.24
2017-06-27T02:56:25.886Z,16.33
2017-06-27T02:56:51.988Z,16.32
2017-06-27T02:57:18.091Z,16.31
2017-06-27T02:57:44.211Z,16.28
2017-06-27T02:58:10.303Z,16.29
2017-06-27T02:58:36.391Z,16.39
2017-06-27T02:59:02.522Z,16.36
2017-06-27T02:59:28.622Z,16.31
2017-06-27T02:59:54.711Z,16.29
2017-06-27T03:00:20.815Z,16.28
2017-06-27T03:00:46.922Z,16.31
2017-06-27T03:01:13.008Z,16.26
2017-06-27T03:01:39.105Z,16.28
2017-06-27T03:02:05.208Z,16.33
2017-06-27T03:02:31.298Z,16.39
2017-06-27T03:02:57.392Z,16.38
2017-06-27T03:03:23.490Z,16.35
2017-06-27T03:03:49.592Z,16.32
2017-06-27T03:04:15.695Z,16.33
2017-06-27T03:04:41.781Z,16.41
2017-06-27T03:05:07.905Z,16.43
2017-06-27T03:05:34.037Z,16.38
2017-06-27T03:06:00.128Z,16.41
2017-06-27T03:06:26.221Z,16.35
2017-06-27T03:06:52.330Z,16.26
2017-06-27T03:07:18.424Z,16.28
2017-06-27T03:07:44.514Z,16.24
2017-06-27T03:08:10.622Z,16.13
2017-06-27T03:08:36.716Z,16.12
2017-06-27T03:09:02.868Z,16.17
2017-06-27T03:09:28.956Z,16.24
2017-06-27T03:09:55.052Z,16.28
2017-06-27T03:10:21.157Z,16.29
2017-06-27T03:10:47.252Z,16.24
2017-06-27T03:11:13.363Z,16.26
2017-06-27T03:11:39.471Z,16.24
2017-06-27T03:12:05.594Z,16.21
2017-06-27T03:12:31.734Z,16.12
2017-06-27T03:12:57.837Z,16.15
2017-06-27T03:13:23.963Z,16.16
2017-06-27T03:13:50.052Z,16.12
2017-06-27T03:14:16.182Z,16.13
2017-06-27T03:14:42.271Z,16.16
2017-06-27T03:15:08.378Z,16.09
2017-06-27T03:15:34.498Z,16.09
2017-06-27T03:16:00.585Z,16.05
2017-06-27T03:16:26.691Z,16.08
2017-06-27T03:16:52.789Z,16.12
2017-06-27T03:17:18.881Z,16.24
2017-06-27T03:17:44.981Z,16.21
2017-06-27T03:18:11.088Z,16.2
2017-06-27T03:18:37.172Z,16.31
2017-06-27T03:19:03.272Z,16.28
2017-06-27T03:19:29.377Z,16.26
2017-06-27T03:19:55.468Z,16.24
2017-06-27T03:20:21.569Z,16.32
2017-06-27T03:20:47.682Z,16.33
2017-06-27T03:21:13.811Z,16.33
2017-06-27T03:21:39.915Z,16.35
2017-06-27T03:22:06.004Z,16.31
2017-06-27T03:22:32.128Z,16.23
2017-06-27T03:22:58.233Z,16.26
2017-06-27T03:23:24.322Z,16.23
2017-06-27T03:23:50.466Z,16.16
2017-06-27T03:24:16.570Z,16.17
2017-06-27T03:24:42.663Z,16.15
2017-06-27T03:25:08.753Z,16.15
2017-06-27T03:25:34.879Z,16.13
2017-06-27T03:26:00.979Z,16.21
2017-06-27T03:26:27.084Z,16.16
2017-06-27T03:26:53.172Z,16.28
2017-06-27T03:27:19.267Z,16.28
2017-06-27T03:27:45.372Z,16.33
2017-06-27T03:28:11.495Z,16.29
2017-06-27T03:28:37.585Z,16.12
2017-06-27T03:29:03.693Z,16.23
2017-06-27T03:29:29.816Z,16.1
2017-06-27T03:29:55.906Z,16.09
2017-06-27T03:30:22.011Z,16.12
2017-06-27T03:30:48.112Z,16.23
2017-06-27T03:31:14.224Z,16.23
2017-06-27T03:31:40.326Z,16.16
2017-06-27T03:32:06.433Z,16.1
2017-06-27T03:32:32.516Z,16.1
2017-06-27T03:32:58.643Z,16.04
2017-06-27T03:33:24.749Z,16.05
2017-06-27T03:33:50.838Z,16.04
2017-06-27T03:34:16.932Z,16.08
2017-06-27T03:34:43.038Z,16.04
2017-06-27T03:35:09.131Z,16.09
2017-06-27T03:35:35.219Z,16.12
2017-06-27T03:36:01.327Z,16.08
2017-06-27T03:36:27.452Z,16.13
2017-06-27T03:36:53.555Z,16.17
2017-06-27T03:37:19.645Z,16.2
2017-06-27T03:37:45.742Z,16.26
2017-06-27T03:38:11.849Z,16.26
2017-06-27T03:38:37.964Z,16.26
2017-06-27T03:39:04.052Z,16.31
2017-06-27T03:39:30.161Z,16.29
2017-06-27T03:39:56.257Z,16.31
2017-06-27T03:40:22.370Z,16.29
2017-06-27T03:40:48.475Z,16.32
2017-06-27T03:41:14.575Z,16.29
2017-06-27T03:41:40.663Z,16.36
2017-06-27T03:42:06.766Z,16.41
2017-06-27T03:42:32.856Z,16.33
2017-06-27T03:42:58.962Z,16.31
2017-06-27T03:43:25.112Z,16.31
2017-06-27T03:43:51.202Z,16.31
2017-06-27T03:44:17.306Z,16.35
2017-06-27T03:44:43.407Z,16.35
2017-06-27T03:45:09.497Z,16.32
2017-06-27T03:45:35.599Z,16.38
2017-06-27T03:46:01.702Z,16.49
2017-06-27T03:46:27.789Z,16.49
2017-06-27T03:46:53.913Z,16.35
2017-06-27T03:47:20.016Z,16.46
2017-06-27T03:47:46.104Z,16.43
2017-06-27T03:48:12.206Z,16.53
2017-06-27T03:48:38.294Z,16.5
2017-06-27T03:49:04.393Z,16.46
2017-06-27T03:49:30.497Z,16.46
2017-06-27T03:49:56.584Z,16.43
2017-06-27T03:50:22.709Z,16.46
2017-06-27T03:50:48.815Z,16.39
2017-06-27T03:51:14.903Z,16.47
2017-06-27T03:51:41.000Z,16.49
2017-06-27T03:52:07.162Z,16.46
2017-06-27T03:52:33.254Z,16.38
2017-06-27T03:52:59.369Z,16.41
2017-06-27T03:53:25.471Z,16.47
2017-06-27T03:53:51.601Z,16.47
2017-06-27T03:54:17.705Z,16.5
2017-06-27T03:54:43.796Z,16.46
2017-06-27T03:55:09.917Z,16.47
2017-06-27T03:55:36.021Z,16.53
2017-06-27T03:56:02.111Z,16.47
2017-06-27T03:56:28.199Z,16.53
2017-06-27T03:56:54.308Z,16.5
2017-06-27T03:57:20.403Z,16.49
2017-06-27T03:57:46.490Z,16.56
2017-06-27T03:58:12.596Z,16.47
2017-06-27T03:58:38.723Z,16.51
2017-06-27T03:59:04.823Z,16.49
2017-06-27T03:59:30.915Z,16.53
2017-06-27T03:59:57.003Z,16.57
2017-06-27T04:00:23.113Z,16.46
2017-06-27T04:00:49.209Z,16.41
2017-06-27T04:01:15.324Z,16.38
2017-06-27T04:01:41.430Z,16.32
2017-06-27T04:02:07.528Z,16.31
2017-06-27T04:02:33.614Z,16.29
2017-06-27T04:02:59.738Z,16.28
2017-06-27T04:03:25.872Z,16.33
2017-06-27T04:03:51.955Z,16.33
2017-06-27T04:04:18.083Z,16.32
2017-06-27T04:04:44.176Z,16.32
2017-06-27T04:05:10.310Z,16.24
2017-06-27T04:05:36.410Z,16.28
2017-06-27T04:06:02.500Z,16.32
2017-06-27T04:06:28.602Z,16.29
2017-06-27T04:06:54.705Z,16.26
2017-06-27T04:07:20.793Z,16.35
2017-06-27T04:07:46.890Z,16.41
2017-06-27T04:08:13.023Z,16.36
2017-06-27T04:08:39.112Z,16.43
2017-06-27T04:09:05.209Z,16.33
2017-06-27T04:09:31.342Z,16.28
2017-06-27T04:09:57.459Z,16.28
2017-06-27T04:10:23.591Z,16.35
2017-06-27T04:10:49.680Z,16.33
2017-06-27T04:11:15.779Z,16.32
2017-06-27T04:11:41.914Z,16.29
2017-06-27T04:12:08.002Z,16.33
2017-06-27T04:12:34.124Z,16.26
2017-06-27T04:13:00.256Z,16.38
2017-06-27T04:13:26.349Z,16.26
2017-06-27T04:13:52.462Z,16.15
2017-06-27T04:14:18.598Z,16.09
2017-06-27T04:14:44.665Z,16.13
2017-06-27T04:15:10.754Z,16.12
2017-06-27T04:15:36.858Z,16.13
2017-06-27T04:16:02.954Z,16.05
2017-06-27T04:16:29.042Z,16.09
2017-06-27T04:16:55.172Z,16.24
2017-06-27T04:17:21.279Z,16.32
2017-06-27T04:17:47.366Z,16.32
2017-06-27T04:18:13.464Z,16.35
2017-06-27T04:18:39.568Z,16.33
2017-06-27T04:19:05.683Z,16.41
2017-06-27T04:19:31.806Z,16.32
2017-06-27T04:19:57.912Z,16.36
2017-06-27T04:20:24.025Z,16.36
2017-06-27T04:20:50.139Z,16.35
2017-06-27T04:21:16.267Z,16.35
2017-06-27T04:21:42.364Z,16.41
2017-06-27T04:22:08.496Z,16.35
2017-06-27T04:22:34.586Z,16.32
2017-06-27T04:23:00.686Z,16.36
2017-06-27T04:23:26.818Z,16.38
2017-06-27T04:23:52.936Z,16.33
2017-06-27T04:24:19.025Z,16.32
2017-06-27T04:24:45.132Z,16.32
2017-06-27T04:25:11.229Z,16.33
2017-06-27T04:25:37.317Z,16.29
2017-06-27T04:26:03.420Z,16.32
2017-06-27T04:26:29.521Z,16.31
2017-06-27T04:26:55.618Z,16.32
2017-06-27T04:27:21.710Z,16.36
2017-06-27T04:27:47.799Z,16.36
2017-06-27T04:28:13.906Z,16.26
2017-06-27T04:28:40.001Z,16.33
2017-06-27T04:29:06.090Z,16.32
2017-06-27T04:29:32.195Z,16.36
2017-06-27T04:29:58.293Z,16.41
2017-06-27T04:30:24.384Z,16.39
2017-06-27T04:30:50.537Z,16.36
2017-06-27T04:31:16.670Z,16.38
2017-06-27T04:31:42.755Z,16.38
2017-06-27T04:32:08.853Z,16.26
2017-06-27T04:32:34.971Z,16.29
2017-06-27T04:33:01.103Z,16.28
2017-06-27T04:33:27.231Z,16.24
2017-06-27T04:33:53.320Z,16.26
2017-06-27T04:34:19.475Z,16.29
2017-06-27T04:34:45.605Z,16.15
2017-06-27T04:35:11.691Z,16.24
2017-06-27T04:35:37.791Z,16.17
2017-06-27T04:36:03.921Z,16.26
2017-06-27T04:36:30.039Z,16.2
2017-06-27T04:36:56.159Z,16.24
2017-06-27T04:37:22.267Z,16.28
2017-06-27T04:37:48.394Z,16.23
2017-06-27T04:38:14.524Z,16.24
2017-06-27T04:38:40.607Z,16.28
2017-06-27T04:39:06.705Z,16.24
2017-06-27T04:39:32.812Z,16.24
2017-06-27T04:39:58.903Z,16.35
2017-06-27T04:40:25.023Z,16.23
2017-06-27T04:40:51.128Z,16.15
2017-06-27T04:41:17.251Z,16.15
2017-06-27T04:41:43.339Z,16.23
2017-06-27T04:42:09.450Z,16.2
2017-06-27T04:42:35.542Z,16.16
2017-06-27T04:43:01.633Z,16.31
2017-06-27T04:43:27.763Z,16.28
2017-06-27T04:43:53.856Z,16.24
2017-06-27T04:44:19.990Z,16.32
2017-06-27T04:44:46.084Z,16.39
2017-06-27T04:45:12.174Z,16.38
2017-06-27T04:45:38.284Z,16.41
2017-06-27T04:46:04.377Z,16.29
2017-06-27T04:46:30.467Z,16.32
2017-06-27T04:46:56.572Z,16.31
2017-06-27T04:47:22.672Z,16.33
2017-06-27T04:47:48.810Z,16.38
2017-06-27T04:48:14.910Z,16.42
2017-06-27T04:48:41.047Z,16.43
2017-06-27T04:49:07.164Z,16.43
2017-06-27T04:49:33.257Z,16.41
2017-06-27T04:49:59.371Z,16.29
2017-06-27T04:50:25.477Z,16.32
2017-06-27T04:50:51.604Z,16.33
2017-06-27T04:51:17.692Z,16.29
2017-06-27T04:51:43.794Z,16.23
2017-06-27T04:52:09.928Z,16.13
2017-06-27T04:52:36.042Z,16.16
2017-06-27T04:53:02.168Z,16.08
2017-06-27T04:53:28.301Z,16.12
2017-06-27T04:53:54.390Z,16.17
2017-06-27T04:54:20.510Z,16.1
2017-06-27T04:54:46.634Z,16.15
2017-06-27T04:55:12.739Z,16.12
2017-06-27T04:55:38.872Z,16.12
2017-06-27T04:56:04.958Z,16.09
2017-06-27T04:56:31.057Z,16.08
2017-06-27T04:56:57.164Z,16.02
2017-06-27T04:57:23.280Z,16.08
2017-06-27T04:57:49.375Z,16.09
2017-06-27T04:58:15.479Z,15.95
2017-06-27T04:58:41.572Z,16.04
2017-06-27T04:59:07.664Z,16.02
2017-06-27T04:59:33.772Z,16.09
2017-06-27T04:59:59.866Z,16
2017-06-27T05:00:25.957Z,16.04
2017-06-27T05:00:52.085Z,15.98
2017-06-27T05:01:18.182Z,15.91
2017-06-27T05:01:44.271Z,16.15
2017-06-27T05:02:10.401Z,16.09
2017-06-27T05:02:36.504Z,16.23
2017-06-27T05:03:02.591Z,16.29
2017-06-27T05:03:28.691Z,16.26
2017-06-27T05:03:54.797Z,16.26
2017-06-27T05:04:20.885Z,16.12
2017-06-27T05:04:46.981Z,16.1
2017-06-27T05:05:13.087Z,16.09
2017-06-27T05:05:39.180Z,16.08
2017-06-27T05:06:05.286Z,15.98
2017-06-27T05:06:31.373Z,16.01
2017-06-27T05:06:57.497Z,16.04
2017-06-27T05:07:23.602Z,16.04
2017-06-27T05:07:49.720Z,16.13
2017-06-27T05:08:15.817Z,16.15
2017-06-27T05:08:41.923Z,16.04
2017-06-27T05:09:08.014Z,16.09
2017-06-27T05:09:34.104Z,16.13
2017-06-27T05:10:00.214Z,16.26
2017-06-27T05:10:26.313Z,16.32
2017-06-27T05:10:52.448Z,16.5
2017-06-27T05:11:18.552Z,16.43
2017-06-27T05:11:44.646Z,16.47
2017-06-27T05:12:10.751Z,16.49
2017-06-27T05:12:36.845Z,16.6
2017-06-27T05:13:02.960Z,16.75
2017-06-27T05:13:29.071Z,16.79
2017-06-27T05:13:55.192Z,16.9
2017-06-27T05:14:21.306Z,16.87
2017-06-27T05:14:47.410Z,16.94
2017-06-27T05:15:13.510Z,16.94
2017-06-27T05:15:39.598Z,16.94
2017-06-27T05:16:05.703Z,16.96
2017-06-27T05:16:31.810Z,16.87
2017-06-27T05:16:57.902Z,16.84
2017-06-27T05:17:23.996Z,16.84
2017-06-27T05:17:50.086Z,16.86
2017-06-27T05:18:16.192Z,16.97
2017-06-27T05:18:42.291Z,16.99
2017-06-27T05:19:08.404Z,17.12
2017-06-27T05:19:34.532Z,17.2
2017-06-27T05:20:00.637Z,17.08
2017-06-27T05:20:26.749Z,17.23
2017-06-27T05:20:52.851Z,17.14
2017-06-27T05:21:19.012Z,17.14
2017-06-27T05:21:45.100Z,17.23
2017-06-27T05:22:11.197Z,17.33
2017-06-27T05:22:37.330Z,17.36
2017-06-27T05:23:03.472Z,17.36
2017-06-27T05:23:29.585Z,17.34
2017-06-27T05:23:55.718Z,17.52
2017-06-27T05:24:21.816Z,17.49
2017-06-27T05:24:47.907Z,17.59
2017-06-27T05:25:14.014Z,17.59
2017-06-27T05:25:40.113Z,17.7
2017-06-27T05:26:06.229Z,17.82
2017-06-27T05:26:32.358Z,17.78
2017-06-27T05:26:58.494Z,17.79
2017-06-27T05:27:24.581Z,17.76
2017-06-27T05:27:50.710Z,17.76
2017-06-27T05:28:16.799Z,17.63
2017-06-27T05:28:42.906Z,17.59
2017-06-27T05:29:09.004Z,17.51
2017-06-27T05:29:35.096Z,17.44
2017-06-27T05:30:01.197Z,17.49
2017-06-27T05:30:27.305Z,17.51
2017-06-27T05:30:53.391Z,17.49
2017-06-27T05:31:19.490Z,17.51
2017-06-27T05:31:45.594Z,17.44
2017-06-27T05:32:11.683Z,17.39
2017-06-27T05:32:37.779Z,17.42
2017-06-27T05:33:03.885Z,17.48
2017-06-27T05:33:29.979Z,17.46
2017-06-27T05:33:56.086Z,17.38
2017-06-27T05:34:22.171Z,17.3
2017-06-27T05:34:48.298Z,17.36
2017-06-27T05:35:14.432Z,17.31
2017-06-27T05:35:40.520Z,17.29
2017-06-27T05:36:06.616Z,17.36
2017-06-27T05:36:32.722Z,17.38
2017-06-27T05:36:58.838Z,17.39
2017-06-27T05:37:24.927Z,17.31